Flugplatz Vettweiss-Soller (UL)

Hier findest Du alle Informationen zum Flugplatz Vettweiss-Soller (UL).

Informationen für Piloten zum Flugplatz Vettweiss-Soller

Hier findest Du alle relevanten Informationen, die Du als Pilot benötigst, um Vettweiss-Soller anzufliegen.

Flugplatz: Vettweiss-Soller ICAO-Code: UL Flugplatz
Frequenz Turm: ab 01.11.18 Mhz GAFOR Gebiet: 34
Frequenz Ground: 120,975 Mhz Mogas: nein
Platzrunde: O 1000 ft Landegebühr: -
Platzhöhe: - Sunrise: 06:52 Uhr UTC
Pisten: 14/32 - 360 m x 20 m, GRAS Sunset: 15:45 Uhr UTC

Flugwetter am Flugplatz Vettweiss-Soller

Die METAR Information stammen aus EDDK (42.55 km entfernt).

METAR Code:
2018/11/13 11:50
EDDK 131150Z 25014KT 220V280 9999 FEW037 15/06 Q1024 NOSIG

Flugschulen am Flugplatz Vettweiss-Soller

Am Flugplatz Vettweiss-Soller gibt es leider keine Flugschule.

Benachbarte Flugplätze und Flugschulen

Es gibt 15 weitere Flugplätze in einem Umkreis von 50 km um den Flugplatz Vettweiss-Soller.

Jetzt anmelden

Passwort vergessen

Umfrage Archiv

Welche Art von Theorieunterricht würde Dir am ehesten zusagen?

Frontalunterricht
63.5 %
Selbststudium
36.5 %
Stimmen: 271 | Diskussion
Anzeige: Roland Aircraft
Statistik Alle Mitglieder

Aktuell sind 65 Besucher online, davon 6 Mitglieder und 59 Gäste.


Mitglieder online:
Fälkchen  Mr. Lucky  koelblin  microlight  Mario  Fahrsteiger 

Anzeige: VFR Sprechfunk Simulator


Anzeige: Pocket FMS